createdAt,value
2018-07-24T00:00:50.258Z,28.80
2018-07-24T00:03:17.908Z,27.73
2018-07-24T00:05:45.756Z,29.50
2018-07-24T00:08:13.622Z,29.00
2018-07-24T00:10:41.475Z,30.07
2018-07-24T00:13:09.151Z,30.30
2018-07-24T00:15:36.873Z,29.10
2018-07-24T00:18:04.860Z,29.03
2018-07-24T00:20:32.571Z,30.87
2018-07-24T00:23:00.463Z,31.20
2018-07-24T00:25:28.124Z,33.03
2018-07-24T00:27:55.795Z,32.93
2018-07-24T00:30:23.646Z,31.83
2018-07-24T00:32:51.326Z,30.63
2018-07-24T00:35:19.055Z,30.23
2018-07-24T00:37:47.010Z,31.07
2018-07-24T00:40:14.726Z,31.00
2018-07-24T00:42:42.374Z,31.47
2018-07-24T00:45:10.574Z,32.27
2018-07-24T00:47:38.615Z,32.43
2018-07-24T00:50:06.400Z,30.27
2018-07-24T00:52:34.047Z,30.43
2018-07-24T00:55:01.954Z,29.87
2018-07-24T00:57:29.670Z,31.07
2018-07-24T00:59:57.529Z,30.67
2018-07-24T01:02:25.339Z,31.77
2018-07-24T01:04:53.143Z,32.03
2018-07-24T01:07:20.781Z,32.80
2018-07-24T01:09:48.533Z,33.37
2018-07-24T01:12:16.379Z,33.57
2018-07-24T01:14:44.374Z,33.10
2018-07-24T01:17:12.094Z,34.37
2018-07-24T01:19:39.741Z,34.37
2018-07-24T01:22:07.626Z,34.70
2018-07-24T01:24:39.810Z,35.73
2018-07-24T01:27:08.255Z,34.87
2018-07-24T01:29:37.038Z,35.47
2018-07-24T01:32:04.880Z,35.67
2018-07-24T01:34:32.699Z,36.03
2018-07-24T01:37:00.425Z,36.70
2018-07-24T01:39:28.079Z,38.03
2018-07-24T01:41:56.099Z,36.50
2018-07-24T01:44:23.991Z,35.93
2018-07-24T01:46:51.832Z,35.40
2018-07-24T01:49:19.531Z,38.03
2018-07-24T01:51:47.719Z,37.63
2018-07-24T01:54:30.084Z,36.07
2018-07-24T01:56:58.192Z,35.97
2018-07-24T01:59:26.403Z,33.93
2018-07-24T02:01:54.263Z,32.50
2018-07-24T02:04:22.049Z,32.63
2018-07-24T02:06:49.888Z,39.33
2018-07-24T02:09:17.730Z,36.67
2018-07-24T02:11:45.470Z,37.93
2018-07-24T02:14:13.194Z,39.17
2018-07-24T02:16:40.895Z,38.70
2018-07-24T02:19:08.753Z,38.43
2018-07-24T02:21:36.908Z,38.93
2018-07-24T02:24:04.803Z,35.50
2018-07-24T02:26:32.462Z,34.80
2018-07-24T02:29:00.271Z,34.73
2018-07-24T02:31:28.156Z,40.00
2018-07-24T02:33:55.924Z,38.07
2018-07-24T02:36:23.732Z,39.00
2018-07-24T02:38:51.943Z,38.23
2018-07-24T02:41:20.041Z,40.23
2018-07-24T02:43:47.782Z,39.47
2018-07-24T02:46:15.592Z,40.97
2018-07-24T02:48:43.302Z,40.37
2018-07-24T02:51:11.219Z,45.53
2018-07-24T02:53:39.037Z,42.10
2018-07-24T02:56:06.934Z,42.40
2018-07-24T02:58:34.617Z,41.97
2018-07-24T03:01:02.411Z,44.33
2018-07-24T03:03:30.111Z,50.30
2018-07-24T03:05:58.090Z,46.20
2018-07-24T03:08:26.435Z,46.53
2018-07-24T03:10:54.403Z,45.20
2018-07-24T03:13:22.103Z,46.07
2018-07-24T03:15:50.249Z,45.10
2018-07-24T03:18:18.174Z,45.87
2018-07-24T03:20:46.091Z,43.47
2018-07-24T03:23:14.151Z,42.33
2018-07-24T03:25:41.835Z,43.23
2018-07-24T03:28:09.631Z,45.20
2018-07-24T03:30:37.389Z,42.83
2018-07-24T03:33:05.152Z,47.37
2018-07-24T03:35:33.517Z,46.10
2018-07-24T03:38:01.413Z,45.73
2018-07-24T03:40:30.339Z,47.53
2018-07-24T03:42:58.371Z,51.03
2018-07-24T03:45:26.091Z,51.03
2018-07-24T03:47:55.156Z,47.83
2018-07-24T03:50:22.892Z,50.33
2018-07-24T03:52:50.639Z,51.37
2018-07-24T03:55:18.350Z,50.53
2018-07-24T03:58:25.737Z,51.83
2018-07-24T04:00:53.662Z,57.77
2018-07-24T04:03:21.375Z,51.33
2018-07-24T04:05:49.313Z,53.40
2018-07-24T04:08:17.202Z,53.57
2018-07-24T04:10:45.157Z,45.73
2018-07-24T04:13:13.107Z,45.43
2018-07-24T04:15:40.932Z,42.87
2018-07-24T04:18:08.799Z,43.40
2018-07-24T04:20:36.802Z,46.93
2018-07-24T04:23:04.805Z,41.77
2018-07-24T04:25:32.602Z,43.37
2018-07-24T04:28:00.741Z,36.43
2018-07-24T04:30:28.649Z,34.63
2018-07-24T04:32:56.545Z,35.07
2018-07-24T04:35:24.351Z,37.70
2018-07-24T04:37:52.112Z,36.30
2018-07-24T04:40:19.872Z,36.53
2018-07-24T04:42:47.473Z,29.67
2018-07-24T04:45:15.400Z,27.83
2018-07-24T04:47:43.226Z,27.93
2018-07-24T04:50:11.133Z,26.17
2018-07-24T04:52:39.217Z,25.23
2018-07-24T04:55:06.968Z,24.50
2018-07-24T04:57:35.099Z,25.33
2018-07-24T05:00:04.222Z,26.37
2018-07-24T05:02:32.074Z,30.63
2018-07-24T05:04:59.802Z,27.40
2018-07-24T05:07:27.650Z,24.03
2018-07-24T05:09:55.524Z,22.40
2018-07-24T05:12:23.511Z,22.57
2018-07-24T05:14:51.239Z,21.67
2018-07-24T05:17:19.124Z,22.50
2018-07-24T05:19:46.893Z,21.63
2018-07-24T05:22:14.661Z,22.80
2018-07-24T05:24:42.690Z,23.97
2018-07-24T05:27:10.601Z,24.13
2018-07-24T05:29:38.384Z,23.57
2018-07-24T05:32:06.514Z,23.47
2018-07-24T05:34:34.298Z,24.43
2018-07-24T05:37:02.023Z,24.80
2018-07-24T05:39:29.786Z,24.33
2018-07-24T05:41:57.551Z,25.63
2018-07-24T05:44:25.329Z,25.07
2018-07-24T05:46:53.252Z,24.93
2018-07-24T05:49:20.899Z,24.67
2018-07-24T05:51:48.623Z,24.10
2018-07-24T05:54:17.391Z,23.80
2018-07-24T05:56:45.054Z,22.83
2018-07-24T05:59:12.836Z,23.37
2018-07-24T06:01:40.607Z,24.20
2018-07-24T06:04:08.294Z,22.07
2018-07-24T06:06:36.168Z,22.00
2018-07-24T06:09:05.928Z,20.90
2018-07-24T06:11:33.792Z,20.83
2018-07-24T06:14:01.603Z,19.83
2018-07-24T06:16:29.440Z,20.27
2018-07-24T06:18:57.254Z,19.70
2018-07-24T06:21:34.997Z,19.33
2018-07-24T06:24:02.951Z,20.17
2018-07-24T06:26:30.643Z,18.80
2018-07-24T06:28:58.331Z,18.13
2018-07-24T06:31:26.314Z,18.70
2018-07-24T06:33:54.020Z,17.60
2018-07-24T06:36:21.752Z,17.33
2018-07-24T06:38:49.471Z,16.40
2018-07-24T06:41:17.246Z,16.87
2018-07-24T06:43:44.915Z,17.20
2018-07-24T06:46:12.846Z,16.33
2018-07-24T06:48:40.555Z,16.90
2018-07-24T06:51:08.368Z,15.87
2018-07-24T06:53:36.177Z,15.67
2018-07-24T06:56:04.060Z,14.30
2018-07-24T06:58:31.878Z,14.57
2018-07-24T07:00:59.722Z,14.50
2018-07-24T07:03:27.437Z,14.93
2018-07-24T07:05:55.457Z,15.47
2018-07-24T07:08:23.134Z,14.33
2018-07-24T07:10:51.223Z,14.87
2018-07-24T07:13:18.899Z,13.93
2018-07-24T07:15:46.616Z,14.53
2018-07-24T07:18:14.446Z,13.43
2018-07-24T07:20:42.207Z,13.90
2018-07-24T07:23:09.859Z,14.37
2018-07-24T07:25:37.739Z,13.03
2018-07-24T07:28:05.659Z,13.30
2018-07-24T07:30:33.347Z,13.87
2018-07-24T07:33:01.778Z,12.40
2018-07-24T07:35:29.662Z,12.77
2018-07-24T07:37:59.643Z,12.53
2018-07-24T07:40:27.683Z,12.00
2018-07-24T07:42:55.347Z,11.67
2018-07-24T07:45:23.181Z,11.33
2018-07-24T07:47:51.434Z,11.50
2018-07-24T07:50:19.251Z,11.70
2018-07-24T07:52:46.999Z,12.10
2018-07-24T07:55:14.895Z,10.63
2018-07-24T07:57:42.687Z,11.63
2018-07-24T08:00:10.358Z,11.10
2018-07-24T08:02:38.119Z,10.90
2018-07-24T08:05:05.879Z,12.00
2018-07-24T08:07:33.630Z,11.20
2018-07-24T08:10:01.456Z,12.17
2018-07-24T08:12:29.683Z,11.80
2018-07-24T08:14:57.344Z,11.53
2018-07-24T08:17:25.126Z,11.63
2018-07-24T08:19:53.143Z,11.35
2018-07-24T08:22:20.844Z,10.98
2018-07-24T08:24:48.649Z,10.78
2018-07-24T08:27:16.472Z,9.53
2018-07-24T08:29:44.223Z,10.13
2018-07-24T08:32:12.314Z,11.03
2018-07-24T08:34:40.064Z,10.50
2018-07-24T08:37:07.830Z,9.63
2018-07-24T08:39:35.628Z,10.88
2018-07-24T08:42:03.349Z,10.28
2018-07-24T08:44:31.035Z,9.25
2018-07-24T08:46:58.797Z,9.65
2018-07-24T08:49:26.812Z,8.83
2018-07-24T08:51:54.818Z,9.50
2018-07-24T08:54:22.773Z,9.13
2018-07-24T08:56:50.243Z,9.40
2018-07-24T08:59:18.063Z,9.20
2018-07-24T09:01:45.871Z,9.23
2018-07-24T09:04:13.648Z,9.00
2018-07-24T09:06:41.314Z,8.88
2018-07-24T09:09:10.762Z,8.73
2018-07-24T09:11:39.290Z,8.50
2018-07-24T09:14:07.220Z,9.28
2018-07-24T09:16:34.904Z,7.97
2018-07-24T09:19:02.563Z,8.03
2018-07-24T09:21:30.359Z,8.00
2018-07-24T09:23:58.462Z,8.48
2018-07-24T09:26:26.250Z,7.65
2018-07-24T09:28:54.291Z,7.80
2018-07-24T09:31:22.058Z,8.25
2018-07-24T09:33:49.740Z,7.72
2018-07-24T09:36:17.530Z,7.53
2018-07-24T09:38:45.183Z,7.45
2018-07-24T09:41:13.132Z,7.50
2018-07-24T09:43:40.793Z,7.80
2018-07-24T09:46:08.454Z,7.85
2018-07-24T09:48:36.139Z,7.45
2018-07-24T09:51:03.807Z,7.70
2018-07-24T09:53:31.591Z,7.42
2018-07-24T09:55:59.287Z,7.50
2018-07-24T09:58:26.973Z,7.53
2018-07-24T10:01:00.398Z,6.97
2018-07-24T10:03:28.413Z,7.05
2018-07-24T10:05:56.069Z,7.10
2018-07-24T10:08:23.839Z,7.17
2018-07-24T10:10:52.427Z,6.90
2018-07-24T10:13:20.386Z,7.15
2018-07-24T10:15:47.888Z,7.50
2018-07-24T10:18:15.594Z,7.60
2018-07-24T10:20:44.384Z,6.83
2018-07-24T10:23:12.051Z,6.90
2018-07-24T10:25:39.699Z,7.35
2018-07-24T10:28:07.368Z,7.00
2018-07-24T10:30:35.307Z,6.40
2018-07-24T10:33:02.948Z,6.95
2018-07-24T10:35:30.642Z,6.67
2018-07-24T10:37:58.294Z,6.72
2018-07-24T10:40:26.095Z,6.42
2018-07-24T10:42:53.857Z,6.53
2018-07-24T10:45:21.649Z,6.05
2018-07-24T10:47:49.483Z,6.80
2018-07-24T10:50:17.458Z,6.28
2018-07-24T10:52:45.088Z,6.92
2018-07-24T10:55:13.138Z,6.37
2018-07-24T10:57:40.883Z,6.50
2018-07-24T11:00:08.657Z,6.10
2018-07-24T11:02:36.346Z,6.15
2018-07-24T11:05:04.165Z,5.83
2018-07-24T11:07:31.829Z,5.50
2018-07-24T11:09:59.506Z,6.35
2018-07-24T11:12:27.207Z,5.55
2018-07-24T11:14:55.103Z,5.90
2018-07-24T11:17:22.807Z,6.20
2018-07-24T11:19:50.570Z,5.95
2018-07-24T11:22:18.353Z,5.97
2018-07-24T11:24:46.487Z,6.60
2018-07-24T11:27:14.484Z,6.30
2018-07-24T11:29:42.147Z,5.97
2018-07-24T11:32:09.867Z,6.17
2018-07-24T11:34:37.526Z,6.00
2018-07-24T11:37:05.251Z,7.20
2018-07-24T11:39:32.976Z,6.63
2018-07-24T11:42:01.835Z,6.57
2018-07-24T11:44:29.520Z,6.63
2018-07-24T11:46:57.294Z,6.47
2018-07-24T11:49:25.095Z,6.90
2018-07-24T11:51:52.857Z,7.10
2018-07-24T11:54:20.578Z,7.43
2018-07-24T11:56:48.303Z,8.03
2018-07-24T11:59:16.030Z,7.70
2018-07-24T12:01:43.749Z,8.03
2018-07-24T12:04:11.512Z,7.63
2018-07-24T12:06:39.179Z,6.97
2018-07-24T12:09:10.039Z,7.33
2018-07-24T12:11:38.057Z,7.33
2018-07-24T12:14:05.770Z,7.70
2018-07-24T12:16:34.045Z,7.00
2018-07-24T12:19:01.751Z,7.70
2018-07-24T12:21:30.463Z,7.57
2018-07-24T12:23:58.275Z,7.37
2018-07-24T12:26:26.100Z,6.97
2018-07-24T12:28:53.779Z,6.77
2018-07-24T12:31:21.511Z,7.10
2018-07-24T12:33:49.189Z,7.40
2018-07-24T12:36:17.037Z,7.17
2018-07-24T12:38:44.742Z,7.47
2018-07-24T12:41:12.622Z,7.53
2018-07-24T12:43:40.980Z,9.90
2018-07-24T12:46:08.775Z,9.23
2018-07-24T12:48:36.435Z,7.43
2018-07-24T12:51:04.079Z,7.83
2018-07-24T12:53:31.815Z,7.70
2018-07-24T12:55:59.492Z,8.00
2018-07-24T12:58:27.388Z,7.30
2018-07-24T13:00:55.338Z,7.60
2018-07-24T13:03:23.235Z,7.50
2018-07-24T13:05:50.980Z,7.47
2018-07-24T13:08:18.727Z,7.57
2018-07-24T13:10:46.798Z,7.30
2018-07-24T13:13:14.434Z,7.07
2018-07-24T13:15:42.220Z,7.60
2018-07-24T13:18:10.374Z,7.40
2018-07-24T13:20:38.127Z,7.40
2018-07-24T13:23:05.891Z,6.97
2018-07-24T13:25:33.658Z,6.97
2018-07-24T13:28:01.561Z,7.37
2018-07-24T13:30:29.263Z,7.40
2018-07-24T13:32:56.935Z,6.97
2018-07-24T13:35:24.616Z,7.50
2018-07-24T13:37:52.372Z,7.40
2018-07-24T13:40:21.825Z,7.30
2018-07-24T13:42:49.469Z,6.80
2018-07-24T13:45:17.204Z,8.17
2018-07-24T13:47:44.903Z,7.00
2018-07-24T13:50:12.798Z,7.07
2018-07-24T13:52:40.532Z,7.03
2018-07-24T13:55:08.466Z,6.63
2018-07-24T13:57:36.207Z,6.60
2018-07-24T14:00:05.076Z,6.67
2018-07-24T14:02:33.010Z,6.30
2018-07-24T14:05:00.718Z,6.90
2018-07-24T14:07:28.429Z,7.20
2018-07-24T14:09:56.684Z,6.37
2018-07-24T14:12:24.443Z,6.50
2018-07-24T14:14:52.120Z,6.83
2018-07-24T14:17:19.956Z,6.80
2018-07-24T14:19:47.632Z,6.97
2018-07-24T14:22:15.323Z,6.83
2018-07-24T14:24:43.263Z,7.03
2018-07-24T14:27:11.215Z,6.70
2018-07-24T14:29:38.977Z,6.20
2018-07-24T14:32:06.643Z,6.80
2018-07-24T14:34:34.307Z,6.20
2018-07-24T14:37:01.911Z,6.17
2018-07-24T14:39:29.579Z,5.97
2018-07-24T14:41:57.418Z,5.80
2018-07-24T14:44:25.337Z,5.87
2018-07-24T14:46:52.972Z,5.87
2018-07-24T14:49:20.638Z,5.97
2018-07-24T14:51:48.470Z,6.80
2018-07-24T14:54:16.341Z,6.50
2018-07-24T14:56:44.015Z,6.27
2018-07-24T14:59:11.923Z,6.47
2018-07-24T15:01:39.621Z,6.23
2018-07-24T15:04:08.050Z,6.47
2018-07-24T15:06:35.775Z,5.47
2018-07-24T15:09:06.449Z,5.70
2018-07-24T15:11:34.254Z,6.07
2018-07-24T15:14:02.018Z,6.17
2018-07-24T15:16:29.743Z,5.90
2018-07-24T15:18:57.496Z,5.90
2018-07-24T15:21:25.279Z,5.80
2018-07-24T15:23:53.335Z,5.27
2018-07-24T15:26:21.338Z,5.37
2018-07-24T15:28:49.192Z,5.70
2018-07-24T15:31:16.847Z,6.13
2018-07-24T15:33:45.603Z,6.17
2018-07-24T15:36:13.279Z,6.33
2018-07-24T15:38:41.013Z,6.40
2018-07-24T15:41:08.716Z,5.90
2018-07-24T15:43:36.531Z,6.73
2018-07-24T15:46:04.439Z,5.77
2018-07-24T15:48:32.376Z,6.03
2018-07-24T15:51:00.179Z,5.87
2018-07-24T15:53:27.874Z,5.77
2018-07-24T15:55:55.708Z,5.90
2018-07-24T15:58:23.442Z,5.73
2018-07-24T16:00:51.735Z,5.93
2018-07-24T16:03:19.498Z,5.77
2018-07-24T16:05:47.356Z,6.00
2018-07-24T16:08:15.549Z,6.27
2018-07-24T16:10:43.307Z,5.80
2018-07-24T16:13:11.056Z,5.50
2018-07-24T16:15:38.879Z,5.53
2018-07-24T16:18:06.564Z,5.13
2018-07-24T16:20:34.986Z,5.40
2018-07-24T16:23:02.876Z,5.33
2018-07-24T16:25:30.743Z,5.83
2018-07-24T16:27:58.841Z,6.00
2018-07-24T16:30:26.679Z,5.43
2018-07-24T16:32:54.430Z,5.53
2018-07-24T16:35:22.164Z,5.67
2018-07-24T16:37:50.140Z,5.47
2018-07-24T16:40:18.055Z,19.47
2018-07-24T16:42:45.714Z,7.13
2018-07-24T16:45:13.497Z,5.40
2018-07-24T16:47:41.330Z,7.50
2018-07-24T16:50:09.166Z,6.00
2018-07-24T16:52:36.932Z,6.03
2018-07-24T16:55:04.598Z,5.60
2018-07-24T16:57:32.404Z,5.63
2018-07-24T17:00:00.116Z,5.63
2018-07-24T17:02:27.872Z,5.77
2018-07-24T17:04:55.549Z,5.30
2018-07-24T17:07:24.010Z,5.57
2018-07-24T17:09:51.666Z,5.77
2018-07-24T17:12:19.360Z,5.40
2018-07-24T17:14:47.198Z,5.80
2018-07-24T17:17:14.906Z,5.80
2018-07-24T17:19:42.605Z,6.50
2018-07-24T17:22:10.279Z,6.50
2018-07-24T17:24:38.111Z,8.20
2018-07-24T17:27:05.898Z,6.47
2018-07-24T17:29:35.401Z,5.60
2018-07-24T17:32:03.075Z,5.50
2018-07-24T17:34:30.677Z,5.90
2018-07-24T17:36:58.521Z,5.27
2018-07-24T17:39:26.310Z,4.93
2018-07-24T17:41:54.166Z,5.27
2018-07-24T17:44:21.992Z,5.30
2018-07-24T17:46:49.770Z,5.20
2018-07-24T17:49:19.056Z,5.33
2018-07-24T17:51:47.050Z,5.53
2018-07-24T17:54:14.847Z,5.00
2018-07-24T17:56:42.658Z,5.10
2018-07-24T17:59:10.620Z,5.57
2018-07-24T18:01:38.490Z,5.53
2018-07-24T18:04:06.170Z,5.67
2018-07-24T18:06:33.838Z,5.60
2018-07-24T18:09:01.503Z,5.40
2018-07-24T18:11:29.642Z,5.50
2018-07-24T18:13:57.467Z,6.00
2018-07-24T18:16:25.189Z,5.83
2018-07-24T18:18:53.122Z,5.10
2018-07-24T18:21:21.231Z,5.93
2018-07-24T18:23:50.364Z,6.00
2018-07-24T18:26:18.326Z,5.60
2018-07-24T18:28:47.167Z,6.07
2018-07-24T18:31:14.946Z,6.30
2018-07-24T18:33:42.693Z,5.97
2018-07-24T18:36:10.448Z,6.17
2018-07-24T18:38:38.903Z,6.57
2018-07-24T18:41:06.697Z,6.27
2018-07-24T18:43:34.361Z,6.30
2018-07-24T18:46:02.458Z,6.40
2018-07-24T18:48:30.623Z,7.00
2018-07-24T18:50:58.495Z,6.73
2018-07-24T18:53:26.438Z,6.90
2018-07-24T18:55:54.240Z,6.83
2018-07-24T18:58:22.308Z,7.10
2018-07-24T19:00:50.152Z,7.17
2018-07-24T19:03:18.049Z,7.80
2018-07-24T19:05:45.913Z,7.27
2018-07-24T19:08:13.616Z,7.53
2018-07-24T19:10:41.531Z,7.23
2018-07-24T19:13:09.915Z,7.07
2018-07-24T19:15:37.578Z,8.10
2018-07-24T19:18:05.491Z,8.83
2018-07-24T19:20:35.317Z,14.17
2018-07-24T19:23:03.103Z,11.40
2018-07-24T19:25:30.810Z,8.67
2018-07-24T19:27:58.530Z,8.30
2018-07-24T19:30:26.244Z,8.07
2018-07-24T19:32:53.982Z,7.90
2018-07-24T19:35:22.113Z,7.70
2018-07-24T19:37:49.851Z,8.27
2018-07-24T19:40:17.493Z,8.90
2018-07-24T19:42:45.144Z,8.77
2018-07-24T19:45:13.012Z,9.13
2018-07-24T19:47:41.585Z,8.83
2018-07-24T19:50:09.263Z,9.10
2018-07-24T19:52:37.248Z,9.57
2018-07-24T19:55:05.164Z,8.83
2018-07-24T19:57:35.423Z,8.60
2018-07-24T20:00:04.544Z,9.23
2018-07-24T20:02:32.233Z,9.63
2018-07-24T20:05:00.347Z,8.87
2018-07-24T20:07:28.035Z,9.60
2018-07-24T20:09:56.383Z,10.53
2018-07-24T20:12:24.067Z,9.30
2018-07-24T20:14:52.889Z,10.20
2018-07-24T20:17:20.962Z,9.70
2018-07-24T20:19:48.834Z,10.27
2018-07-24T20:22:16.570Z,9.90
2018-07-24T20:24:45.238Z,8.97
2018-07-24T20:27:13.823Z,9.30
2018-07-24T20:29:42.044Z,9.33
2018-07-24T20:32:09.783Z,9.40
2018-07-24T20:34:37.454Z,9.17
2018-07-24T20:37:05.247Z,9.97
2018-07-24T20:39:32.958Z,10.63
2018-07-24T20:42:00.594Z,9.40
2018-07-24T20:44:28.856Z,9.63
2018-07-24T20:46:56.519Z,9.13
2018-07-24T20:49:24.603Z,10.03
2018-07-24T20:51:52.798Z,10.17
2018-07-24T20:54:21.030Z,10.07
2018-07-24T20:56:48.962Z,10.50
2018-07-24T20:59:16.820Z,10.73
2018-07-24T21:01:45.939Z,10.73
2018-07-24T21:04:14.191Z,10.80
2018-07-24T21:06:42.293Z,10.23
2018-07-24T21:09:10.638Z,11.13
2018-07-24T21:11:39.508Z,10.37
2018-07-24T21:14:07.994Z,10.33
2018-07-24T21:16:35.891Z,11.40
2018-07-24T21:19:03.941Z,10.73
2018-07-24T21:21:31.891Z,11.47
2018-07-24T21:24:00.474Z,11.63
2018-07-24T21:26:28.411Z,11.77
2018-07-24T21:28:56.642Z,12.23
2018-07-24T21:31:24.671Z,12.60
2018-07-24T21:33:52.399Z,13.07
2018-07-24T21:36:20.375Z,13.10
2018-07-24T21:38:48.070Z,13.27
2018-07-24T21:41:15.995Z,13.80
2018-07-24T21:43:43.767Z,13.70
2018-07-24T21:46:11.398Z,13.57
2018-07-24T21:48:39.331Z,13.70
2018-07-24T21:51:07.043Z,13.47
2018-07-24T21:53:40.648Z,12.70
2018-07-24T21:56:08.612Z,12.80
2018-07-24T21:58:36.467Z,13.70
2018-07-24T22:01:10.354Z,13.57
2018-07-24T22:03:38.099Z,13.20
2018-07-24T22:06:05.964Z,12.90
2018-07-24T22:08:34.008Z,13.40
2018-07-24T22:11:01.970Z,13.77
2018-07-24T22:13:29.818Z,14.27
2018-07-24T22:15:57.610Z,13.47
2018-07-24T22:18:28.548Z,13.77
2018-07-24T22:20:57.335Z,13.33
2018-07-24T22:23:25.738Z,14.03
2018-07-24T22:25:55.687Z,13.80
2018-07-24T22:28:23.871Z,13.57
2018-07-24T22:30:55.895Z,13.53
2018-07-24T22:33:25.426Z,13.97
2018-07-24T22:35:53.390Z,13.60
2018-07-24T22:38:21.138Z,13.30
2018-07-24T22:40:49.211Z,12.80
2018-07-24T22:43:17.019Z,14.03
2018-07-24T22:45:45.662Z,12.87
2018-07-24T22:48:13.563Z,13.43
2018-07-24T22:50:41.417Z,12.80
2018-07-24T22:53:09.763Z,12.80
2018-07-24T22:55:37.507Z,12.73
2018-07-24T22:58:06.112Z,12.77
2018-07-24T23:00:34.021Z,11.87
2018-07-24T23:03:02.057Z,12.23
2018-07-24T23:05:29.862Z,12.87
2018-07-24T23:07:57.589Z,12.87
2018-07-24T23:10:32.843Z,12.57
2018-07-24T23:13:02.253Z,12.30
2018-07-24T23:15:30.909Z,11.87
2018-07-24T23:17:58.971Z,12.17
2018-07-24T23:20:27.512Z,12.30
2018-07-24T23:22:55.139Z,11.30
2018-07-24T23:25:23.369Z,11.73
2018-07-24T23:27:51.569Z,13.37
2018-07-24T23:30:19.529Z,13.40
2018-07-24T23:32:47.288Z,14.50
2018-07-24T23:35:15.105Z,14.10
2018-07-24T23:37:43.183Z,14.00
2018-07-24T23:40:11.153Z,13.60
2018-07-24T23:42:39.124Z,13.90
2018-07-24T23:45:06.976Z,14.90
2018-07-24T23:47:34.956Z,15.97
2018-07-24T23:50:02.788Z,16.10
2018-07-24T23:52:30.502Z,16.90
2018-07-24T23:54:58.218Z,15.93
2018-07-24T23:57:26.058Z,15.33
2018-07-24T23:59:53.994Z,15.73
